Time;durP1;ratioP1;P1;durP2;ratioP2;P2;SDS_P1;SDS_P2;PMS_P1;PMS_P2;Temp;Humidity;BMP_temperature;BMP_pressure;BME280_temperature;BME280_humidity;BME280_pressure;Samples;Min_cycle;Max_cycle;Signal;HPM_P1;HPM_P2
2023/02/02 00:01:10;;;;;;;;;;;7.80;99.90;;;;;;5073318;28;20421;-75
2023/02/02 00:03:37;;;;;;;;;;;7.80;99.90;;;;;;5073463;28;19957;-74
2023/02/02 00:06:03;;;;;;;;;;;8.30;99.90;;;;;;5073179;28;19967;-75
2023/02/02 00:08:28;;;;;;;;;;;7.80;99.90;;;;;;5073266;28;20025;-75
2023/02/02 00:10:54;;;;;;;;;;;7.80;99.90;;;;;;5073296;28;20485;-75
2023/02/02 00:13:20;;;;;;;;;;;7.80;99.90;;;;;;5075051;28;19908;-75
2023/02/02 00:15:45;;;;;;;;;;;7.70;99.90;;;;;;5073115;28;20003;-75
2023/02/02 00:18:11;;;;;;;;;;;7.70;99.90;;;;;;5074811;28;19912;-75
2023/02/02 00:20:36;;;;;;;;;;;7.70;99.90;;;;;;5072887;28;19924;-75
2023/02/02 00:23:03;;;;;;;;;;;7.70;99.90;;;;;;5072898;28;19952;-75
2023/02/02 00:25:28;;;;;;;;;;;7.60;99.90;;;;;;5074216;28;19908;-75
2023/02/02 00:27:54;;;;;;;;;;;7.70;99.90;;;;;;5072896;28;19912;-75
2023/02/02 00:30:19;;;;;;;;;;;7.60;99.90;;;;;;5072930;28;20317;-75
2023/02/02 00:32:47;;;;;;;;;;;7.60;99.90;;;;;;5072886;28;20006;-75
2023/02/02 00:35:13;;;;;;;;;;;7.50;99.90;;;;;;5074145;28;19908;-75
2023/02/02 00:37:39;;;;;;;;;;;7.60;99.90;;;;;;5072668;28;19908;-75
2023/02/02 00:40:05;;;;;;;;;;;7.60;99.90;;;;;;5073993;28;19947;-75
2023/02/02 00:42:30;;;;;;;;;;;7.70;99.90;;;;;;5074098;28;19931;-75
2023/02/02 00:47:42;;;;;;;;;;;7.60;99.90;;;;;;5073486;28;20404;-74
2023/02/02 00:50:09;;;;;;;;;;;7.60;99.90;;;;;;5073764;28;19915;-75
2023/02/02 00:52:34;;;;;;;;;;;7.60;99.90;;;;;;5072753;28;20006;-75
2023/02/02 00:55:00;;;;;;;;;;;7.50;99.90;;;;;;5074498;28;19955;-75
2023/02/02 00:57:25;;;;;;;;;;;7.50;99.90;;;;;;5074293;28;19974;-75
2023/02/02 00:59:51;;;;;;;;;;;7.50;99.90;;;;;;5073806;28;19951;-75
2023/02/02 01:02:16;;;;;;;;;;;7.50;99.90;;;;;;5073649;28;19919;-75
2023/02/02 01:04:42;;;;;;;;;;;7.40;99.90;;;;;;5072452;28;19912;-75
2023/02/02 01:07:07;;;;;;;;;;;7.40;99.90;;;;;;5073716;28;20371;-75
2023/02/02 01:09:33;;;;;;;;;;;7.30;99.90;;;;;;5072355;28;19930;-75
2023/02/02 01:11:58;;;;;;;;;;;7.30;99.90;;;;;;5073557;28;20352;-75
2023/02/02 01:14:24;;;;;;;;;;;7.20;99.90;;;;;;5074860;28;19935;-75
2023/02/02 01:16:49;;;;;;;;;;;7.20;99.90;;;;;;5072208;28;20000;-75
2023/02/02 01:19:15;;;;;;;;;;;7.10;99.90;;;;;;5073452;28;19913;-75
2023/02/02 01:21:41;;;;;;;;;;;7.10;99.90;;;;;;5072185;28;20352;-75
2023/02/02 01:24:07;;;;;;;;;;;7.00;99.90;;;;;;5073398;28;19944;-75
2023/02/02 01:26:32;;;;;;;;;;;7.00;99.90;;;;;;5073476;28;19952;-75
2023/02/02 01:28:57;;;;;;;;;;;7.40;99.90;;;;;;5073380;28;19967;-75
2023/02/02 01:31:23;;;;;;;;;;;6.90;99.90;;;;;;5076457;28;19962;-75
2023/02/02 01:33:49;;;;;;;;;;;7.90;99.90;;;;;;5077435;28;19999;-75
2023/02/02 01:36:15;;;;;;;;;;;6.80;99.90;;;;;;5077480;28;20008;-75
2023/02/02 01:38:41;;;;;;;;;;;6.80;99.90;;;;;;5077305;28;19908;-75
2023/02/02 01:41:07;;;;;;;;;;;6.80;99.90;;;;;;5077177;28;20259;-75
2023/02/02 01:43:42;;;;;;;;;;;6.80;99.90;;;;;;5077214;28;19916;-75
2023/02/02 01:46:12;;;;;;;;;;;6.80;99.90;;;;;;5075911;28;20371;-75
2023/02/02 01:48:39;;;;;;;;;;;6.90;99.90;;;;;;5077185;28;19958;-75
2023/02/02 01:51:06;;;;;;;;;;;6.80;99.90;;;;;;5077222;28;19970;-74
2023/02/02 01:53:32;;;;;;;;;;;6.90;99.90;;;;;;5075866;28;19912;-74
2023/02/02 01:55:58;;;;;;;;;;;6.80;99.90;;;;;;5077155;28;19916;-74
2023/02/02 01:58:28;;;;;;;;;;;6.90;99.90;;;;;;5077113;28;19999;-74
2023/02/02 02:00:54;;;;;;;;;;;6.90;99.90;;;;;;5075654;28;20436;-74
2023/02/02 02:03:21;;;;;;;;;;;6.90;99.90;;;;;;5075637;28;19912;-74
2023/02/02 02:05:50;;;;;;;;;;;6.90;99.90;;;;;;5076688;28;19912;-74
2023/02/02 02:08:20;;;;;;;;;;;6.90;99.90;;;;;;5075540;28;19908;-74
2023/02/02 02:10:46;;;;;;;;;;;6.90;99.90;;;;;;5076001;28;19915;-75
2023/02/02 02:13:12;;;;;;;;;;;6.90;99.90;;;;;;5076735;28;19991;-75
2023/02/02 02:27:32;;;;;;;;;;;7.30;99.90;;;;;;5117779;28;19918;-75
2023/02/02 02:29:58;;;;;;;;;;;7.40;99.90;;;;;;5117836;28;19908;-76
2023/02/02 02:32:27;;;;;;;;;;;7.40;99.90;;;;;;5117531;28;19915;-75
2023/02/02 02:34:52;;;;;;;;;;;7.40;99.90;;;;;;5117756;28;19919;-76
2023/02/02 02:37:26;;;;;;;;;;;7.50;99.90;;;;;;5116250;28;20271;-76
2023/02/02 02:39:51;;;;;;;;;;;7.50;99.90;;;;;;5117725;28;19914;-76
2023/02/02 02:42:23;;;;;;;;;;;7.60;99.90;;;;;;5115107;28;20297;-76
2023/02/02 02:44:49;;;;;;;;;;;7.50;99.90;;;;;;5118069;28;20349;-76
2023/02/02 02:47:15;;;;;;;;;;;7.50;99.90;;;;;;5117794;28;19938;-76
2023/02/02 02:49:44;;;;;;;;;;;7.50;99.90;;;;;;5116214;28;20022;-76
2023/02/02 02:52:09;;;;;;;;;;;7.50;99.90;;;;;;5116197;28;19908;-76
2023/02/02 02:54:39;;;;;;;;;;;8.40;99.90;;;;;;5117268;28;20385;-76
2023/02/02 02:57:19;;;;;;;;;;;7.50;99.90;;;;;;5117421;28;19908;-76
2023/02/02 02:59:55;;;;;;;;;;;7.50;99.90;;;;;;5116435;28;20341;-76
2023/02/02 03:02:33;;;;;;;;;;;7.60;99.90;;;;;;5115949;28;19919;-76
2023/02/02 03:05:04;;;;;;;;;;;7.60;99.90;;;;;;5117254;28;19908;-76
2023/02/02 03:07:34;;;;;;;;;;;7.60;99.90;;;;;;5117091;28;19918;-76
2023/02/02 03:10:00;;;;;;;;;;;7.60;99.90;;;;;;5117165;28;19908;-76
2023/02/02 03:12:25;;;;;;;;;;;7.60;99.90;;;;;;5116505;28;19908;-76
2023/02/02 03:14:51;;;;;;;;;;;7.60;99.90;;;;;;5116976;28;20410;-76
2023/02/02 03:17:16;;;;;;;;;;;7.60;99.90;;;;;;5115602;28;19908;-76
2023/02/02 03:19:42;;;;;;;;;;;7.60;99.90;;;;;;5117069;28;19923;-76
2023/02/02 03:22:07;;;;;;;;;;;8.60;99.90;;;;;;5116141;28;20010;-76
2023/02/02 03:24:33;;;;;;;;;;;7.70;99.90;;;;;;5116835;28;19912;-76
2023/02/02 03:26:58;;;;;;;;;;;7.90;99.90;;;;;;5116469;28;19918;-75
2023/02/02 03:29:24;;;;;;;;;;;7.70;99.90;;;;;;5116613;28;19908;-76
2023/02/02 03:31:49;;;;;;;;;;;7.80;99.90;;;;;;5116879;28;19907;-76
2023/02/02 03:34:15;;;;;;;;;;;7.80;99.90;;;;;;5116883;28;20421;-76
2023/02/02 03:36:40;;;;;;;;;;;7.80;99.90;;;;;;5115229;28;19907;-76
2023/02/02 03:39:06;;;;;;;;;;;7.80;99.90;;;;;;5116585;28;20286;-76
2023/02/02 03:41:31;;;;;;;;;;;7.80;99.90;;;;;;5116517;28;19994;-76
2023/02/02 03:43:57;;;;;;;;;;;7.80;99.90;;;;;;5116629;28;19908;-76
2023/02/02 03:46:22;;;;;;;;;;;7.80;99.90;;;;;;5115311;28;19923;-76
2023/02/02 03:48:47;;;;;;;;;;;7.80;99.90;;;;;;5115337;28;19908;-76
2023/02/02 03:51:13;;;;;;;;;;;7.80;99.90;;;;;;5116005;28;19908;-76
2023/02/02 03:53:39;;;;;;;;;;;7.90;99.90;;;;;;5114757;28;19908;-76
2023/02/02 03:56:04;;;;;;;;;;;7.90;99.90;;;;;;5116523;28;19907;-76
2023/02/02 03:58:30;;;;;;;;;;;7.90;99.90;;;;;;5116259;27;19999;-76
2023/02/02 04:01:03;;;;;;;;;;;7.90;99.90;;;;;;5114991;28;19915;-76
2023/02/02 04:03:29;;;;;;;;;;;7.90;99.90;;;;;;5116941;28;19915;-76
2023/02/02 04:05:54;;;;;;;;;;;7.90;99.90;;;;;;5114999;28;20266;-76
2023/02/02 04:08:20;;;;;;;;;;;7.90;99.90;;;;;;5116215;28;19999;-76
2023/02/02 04:10:45;;;;;;;;;;;7.90;99.90;;;;;;5116393;28;19914;-76
2023/02/02 04:13:10;;;;;;;;;;;8.00;99.90;;;;;;5114547;28;19966;-76
2023/02/02 04:15:36;;;;;;;;;;;8.70;99.90;;;;;;5116578;28;19961;-76
2023/02/02 04:18:01;;;;;;;;;;;8.00;99.90;;;;;;5114215;28;19995;-76
2023/02/02 04:20:27;;;;;;;;;;;8.00;99.90;;;;;;5113844;28;19938;-76
2023/02/02 04:22:53;;;;;;;;;;;8.00;99.90;;;;;;5114076;28;20285;-76
2023/02/02 04:25:18;;;;;;;;;;;8.00;99.90;;;;;;5115024;28;19908;-76
2023/02/02 04:27:44;;;;;;;;;;;8.00;99.90;;;;;;5114923;28;19912;-76
2023/02/02 04:30:10;;;;;;;;;;;7.90;99.90;;;;;;5115465;28;19956;-76
2023/02/02 04:32:35;;;;;;;;;;;8.00;99.90;;;;;;5115045;27;19914;-76
2023/02/02 04:35:01;;;;;;;;;;;8.00;99.90;;;;;;5113536;28;19908;-76
2023/02/02 04:37:26;;;;;;;;;;;8.00;99.90;;;;;;5115435;28;19954;-76
2023/02/02 04:39:54;;;;;;;;;;;8.00;99.90;;;;;;5113371;28;20020;-76
2023/02/02 04:42:19;;;;;;;;;;;9.30;99.90;;;;;;5114760;28;19907;-76
2023/02/02 04:44:45;;;;;;;;;;;8.00;99.90;;;;;;5113461;28;19914;-76
2023/02/02 04:47:10;;;;;;;;;;;8.10;99.90;;;;;;5113393;28;19912;-76
2023/02/02 04:49:36;;;;;;;;;;;8.10;99.90;;;;;;5114782;28;20422;-76
2023/02/02 04:52:02;;;;;;;;;;;8.10;99.90;;;;;;5114634;28;19954;-76
2023/02/02 04:54:27;;;;;;;;;;;8.10;99.90;;;;;;5114590;28;19908;-76
2023/02/02 04:56:53;;;;;;;;;;;8.10;99.90;;;;;;5113261;28;19914;-76
2023/02/02 04:59:18;;;;;;;;;;;8.10;99.90;;;;;;5114410;28;19907;-76
2023/02/02 05:01:44;;;;;;;;;;;8.10;99.90;;;;;;5113078;28;19908;-76
2023/02/02 05:04:10;;;;;;;;;;;8.10;99.90;;;;;;5113121;28;19912;-76
2023/02/02 05:06:35;;;;;;;;;;;8.10;99.90;;;;;;5113951;28;19919;-76
2023/02/02 05:09:01;;;;;;;;;;;8.10;99.90;;;;;;5113169;28;20020;-76
2023/02/02 05:11:27;;;;;;;;;;;8.20;99.90;;;;;;5113052;28;19908;-76
2023/02/02 05:13:53;;;;;;;;;;;8.20;99.90;;;;;;5114450;28;20292;-76
2023/02/02 05:16:19;;;;;;;;;;;8.10;99.90;;;;;;5114538;28;19911;-76
2023/02/02 05:18:48;;;;;;;;;;;8.20;99.90;;;;;;5112933;28;20320;-76
2023/02/02 05:21:14;;;;;;;;;;;8.20;99.90;;;;;;5114301;28;20324;-76
2023/02/02 05:23:39;;;;;;;;;;;8.20;99.90;;;;;;5112984;28;19908;-76
2023/02/02 05:26:04;;;;;;;;;;;8.10;99.90;;;;;;5114079;28;19911;-76
2023/02/02 05:28:30;;;;;;;;;;;8.10;99.90;;;;;;5114303;28;20049;-76
2023/02/02 05:30:56;;;;;;;;;;;8.10;99.90;;;;;;5114178;28;20362;-76
2023/02/02 05:33:22;;;;;;;;;;;8.10;99.90;;;;;;5114101;28;20002;-76
2023/02/02 05:35:47;;;;;;;;;;;8.10;99.90;;;;;;5112908;28;19915;-76
2023/02/02 05:38:13;;;;;;;;;;;8.90;99.90;;;;;;5114033;28;19908;-76
2023/02/02 05:40:38;;;;;;;;;;;8.10;99.90;;;;;;5114016;28;19915;-76
2023/02/02 05:43:04;;;;;;;;;;;8.10;99.90;;;;;;5112663;28;19961;-76
2023/02/02 05:45:29;;;;;;;;;;;8.10;99.90;;;;;;5114136;28;19908;-76
2023/02/02 05:47:55;;;;;;;;;;;8.70;99.90;;;;;;5114729;28;19991;-76
2023/02/02 05:50:21;;;;;;;;;;;8.10;99.90;;;;;;5114353;28;20376;-76
2023/02/02 05:52:46;;;;;;;;;;;8.10;99.90;;;;;;5113274;28;19908;-76
2023/02/02 05:55:12;;;;;;;;;;;8.10;99.90;;;;;;5113106;28;20073;-76
2023/02/02 05:57:37;;;;;;;;;;;8.00;99.90;;;;;;5114709;28;19908;-76
2023/02/02 06:00:04;;;;;;;;;;;8.10;99.90;;;;;;5113663;28;19908;-76
2023/02/02 06:02:29;;;;;;;;;;;8.10;99.90;;;;;;5114810;28;19912;-76
2023/02/02 06:04:55;;;;;;;;;;;8.00;99.90;;;;;;5114574;28;19963;-76
2023/02/02 06:07:20;;;;;;;;;;;8.00;99.90;;;;;;5115594;28;19919;-76
2023/02/02 06:09:46;;;;;;;;;;;8.00;99.90;;;;;;5113575;28;20033;-76
2023/02/02 06:12:11;;;;;;;;;;;7.90;99.90;;;;;;5113271;28;20277;-76
2023/02/02 06:14:36;;;;;;;;;;;8.00;99.90;;;;;;5115122;28;19962;-76
2023/02/02 06:17:02;;;;;;;;;;;7.90;99.90;;;;;;5115279;28;19918;-76
2023/02/02 06:19:27;;;;;;;;;;;7.90;99.90;;;;;;5118538;28;19911;-76
2023/02/02 06:21:53;;;;;;;;;;;8.00;99.90;;;;;;5116241;28;20385;-75
2023/02/02 06:24:18;;;;;;;;;;;7.90;99.90;;;;;;5117117;28;19955;-76
2023/02/02 06:26:44;;;;;;;;;;;7.90;99.90;;;;;;5116798;28;19919;-75
2023/02/02 06:29:11;;;;;;;;;;;7.90;99.90;;;;;;5117776;28;20036;-76
2023/02/02 06:31:36;;;;;;;;;;;7.90;99.90;;;;;;5117751;28;19950;-76
2023/02/02 06:34:02;;;;;;;;;;;7.90;99.90;;;;;;5116604;28;19915;-75
2023/02/02 06:36:27;;;;;;;;;;;7.90;99.90;;;;;;5116810;28;19914;-75
2023/02/02 06:38:54;;;;;;;;;;;7.90;99.90;;;;;;5117807;28;20273;-76
2023/02/02 06:41:20;;;;;;;;;;;8.60;99.90;;;;;;5117963;28;19960;-75
2023/02/02 06:43:46;;;;;;;;;;;7.90;99.90;;;;;;5117909;28;20358;-76
2023/02/02 06:46:11;;;;;;;;;;;8.90;99.90;;;;;;5117995;28;19912;-76
2023/02/02 06:48:37;;;;;;;;;;;7.90;99.90;;;;;;5116193;28;19915;-76
2023/02/02 06:51:04;;;;;;;;;;;7.90;99.90;;;;;;5115681;28;19951;-76
2023/02/02 06:53:30;;;;;;;;;;;7.90;99.90;;;;;;5116581;28;19908;-75
2023/02/02 06:55:56;;;;;;;;;;;7.90;99.90;;;;;;5116413;28;19915;-75
2023/02/02 06:58:22;;;;;;;;;;;7.90;99.90;;;;;;5116213;28;19914;-75
2023/02/02 07:00:50;;;;;;;;;;;7.90;99.90;;;;;;5117482;27;19998;-75
2023/02/02 07:03:16;;;;;;;;;;;7.90;99.90;;;;;;5117769;28;19908;-75
2023/02/02 07:05:41;;;;;;;;;;;8.40;99.90;;;;;;5116341;28;19914;-75
2023/02/02 07:08:07;;;;;;;;;;;7.90;99.90;;;;;;5117436;28;19911;-75
2023/02/02 07:10:32;;;;;;;;;;;7.80;99.90;;;;;;5117074;28;19912;-75
2023/02/02 07:12:58;;;;;;;;;;;7.80;99.90;;;;;;5117324;28;20376;-75
2023/02/02 07:15:23;;;;;;;;;;;7.80;99.90;;;;;;5117519;28;19908;-75
2023/02/02 07:17:49;;;;;;;;;;;7.80;99.90;;;;;;5116052;28;19950;-75
2023/02/02 07:20:14;;;;;;;;;;;7.70;99.90;;;;;;5115179;28;20010;-75
2023/02/02 07:22:40;;;;;;;;;;;7.70;99.90;;;;;;5115836;28;19908;-75
2023/02/02 07:25:06;;;;;;;;;;;8.20;99.90;;;;;;5116529;28;19908;-75
2023/02/02 07:27:32;;;;;;;;;;;7.70;99.90;;;;;;5115135;28;19918;-75
2023/02/02 07:29:57;;;;;;;;;;;7.70;99.90;;;;;;5116205;28;19990;-75
2023/02/02 07:32:23;;;;;;;;;;;7.70;99.90;;;;;;5117072;28;19920;-75
2023/02/02 07:34:48;;;;;;;;;;;8.70;99.90;;;;;;5116984;28;19951;-75
2023/02/02 07:37:14;;;;;;;;;;;7.70;99.90;;;;;;5116801;28;19960;-75
2023/02/02 07:39:42;;;;;;;;;;;7.80;99.90;;;;;;5116516;28;19908;-75
2023/02/02 07:42:11;;;;;;;;;;;7.80;99.90;;;;;;5116667;28;20301;-75
2023/02/02 07:44:36;;;;;;;;;;;7.80;99.90;;;;;;5116693;28;19908;-75
2023/02/02 07:47:02;;;;;;;;;;;7.80;99.90;;;;;;5115029;28;20370;-75
2023/02/02 07:49:27;;;;;;;;;;;7.80;99.90;;;;;;5115968;28;19943;-74
2023/02/02 07:51:53;;;;;;;;;;;8.80;99.90;;;;;;5115950;28;19915;-75
2023/02/02 07:54:19;;;;;;;;;;;7.90;99.90;;;;;;5114649;28;19915;-74
2023/02/02 07:56:44;;;;;;;;;;;8.80;99.90;;;;;;5114547;28;20417;-74
2023/02/02 07:59:10;;;;;;;;;;;7.90;99.90;;;;;;5114428;28;19911;-74
2023/02/02 08:01:36;;;;;;;;;;;7.90;99.90;;;;;;5115526;28;20354;-74
2023/02/02 08:04:02;;;;;;;;;;;8.00;99.90;;;;;;5115967;28;20282;-74
2023/02/02 08:06:30;;;;;;;;;;;8.00;99.90;;;;;;5115392;28;19912;-74
2023/02/02 08:08:57;;;;;;;;;;;8.00;99.90;;;;;;5115527;27;19999;-74
2023/02/02 08:11:22;;;;;;;;;;;8.10;99.90;;;;;;5115354;28;20010;-74
2023/02/02 08:13:49;;;;;;;;;;;8.10;99.90;;;;;;5114314;28;20012;-74
2023/02/02 08:16:14;;;;;;;;;;;8.10;99.90;;;;;;5115975;28;19914;-74
2023/02/02 08:18:41;;;;;;;;;;;8.10;99.90;;;;;;5115889;28;19908;-74
2023/02/02 08:21:09;;;;;;;;;;;8.50;99.90;;;;;;5113695;28;20386;-74
2023/02/02 08:23:36;;;;;;;;;;;8.10;99.90;;;;;;5114943;28;20341;-74
2023/02/02 08:26:12;;;;;;;;;;;8.10;99.90;;;;;;5115334;28;19911;-75
2023/02/02 08:28:39;;;;;;;;;;;8.10;99.90;;;;;;5115762;28;19908;-74
2023/02/02 08:31:09;;;;;;;;;;;8.10;99.90;;;;;;5113667;28;19961;-74
2023/02/02 08:33:35;;;;;;;;;;;8.10;99.90;;;;;;5115073;28;20366;-74
2023/02/02 08:36:00;;;;;;;;;;;8.10;99.90;;;;;;5114928;28;19914;-74
2023/02/02 08:38:26;;;;;;;;;;;8.10;99.90;;;;;;5113831;28;19912;-74
2023/02/02 08:40:51;;;;;;;;;;;8.10;99.90;;;;;;5112672;28;19908;-74
2023/02/02 08:43:17;;;;;;;;;;;8.20;99.90;;;;;;5114947;28;20306;-74
2023/02/02 08:45:43;;;;;;;;;;;8.20;99.90;;;;;;5114661;28;19911;-75
2023/02/02 08:48:08;;;;;;;;;;;8.20;99.90;;;;;;5114620;28;19911;-74
2023/02/02 08:50:34;;;;;;;;;;;8.30;99.90;;;;;;5113440;28;20349;-74
2023/02/02 08:52:59;;;;;;;;;;;8.30;99.90;;;;;;5114884;28;19931;-74
2023/02/02 08:55:25;;;;;;;;;;;8.40;99.90;;;;;;5113439;28;19990;-74
2023/02/02 08:57:50;;;;;;;;;;;8.50;99.90;;;;;;5115251;28;19961;-74
2023/02/02 09:00:16;;;;;;;;;;;8.50;99.90;;;;;;5114887;28;19914;-74
2023/02/02 09:02:41;;;;;;;;;;;8.50;99.90;;;;;;5114647;28;19912;-75
2023/02/02 09:05:07;;;;;;;;;;;8.50;99.90;;;;;;5114624;28;20419;-75
2023/02/02 09:07:32;;;;;;;;;;;8.60;99.90;;;;;;5113490;28;19915;-75
2023/02/02 09:09:59;;;;;;;;;;;8.60;99.90;;;;;;5114594;28;19911;-73
2023/02/02 09:12:24;;;;;;;;;;;8.60;99.90;;;;;;5113862;28;19912;-73
2023/02/02 09:14:50;;;;;;;;;;;8.60;99.90;;;;;;5115182;28;20322;-75
2023/02/02 09:17:16;;;;;;;;;;;8.70;99.90;;;;;;5115142;28;19907;-76
2023/02/02 09:19:41;;;;;;;;;;;8.70;99.90;;;;;;5113688;28;20251;-75
2023/02/02 09:22:06;;;;;;;;;;;8.80;99.90;;;;;;5113830;28;19954;-74
2023/02/02 09:24:32;;;;;;;;;;;8.80;99.90;;;;;;5115038;28;19919;-75
2023/02/02 09:26:57;;;;;;;;;;;8.90;99.90;;;;;;5114396;28;20320;-74
2023/02/02 09:29:23;;;;;;;;;;;8.90;99.90;;;;;;5116173;28;19908;-75
2023/02/02 09:31:49;;;;;;;;;;;8.90;99.90;;;;;;5115712;28;19908;-75
2023/02/02 09:34:14;;;;;;;;;;;8.90;99.90;;;;;;5115615;28;19953;-74
2023/02/02 09:36:40;;;;;;;;;;;8.90;99.90;;;;;;5115567;28;20016;-74
2023/02/02 09:39:06;;;;;;;;;;;8.90;99.90;;;;;;5115394;28;19912;-76
2023/02/02 09:41:38;;;;;;;;;;;8.90;99.90;;;;;;5114041;28;19912;-76
2023/02/02 09:44:16;;;;;;;;;;;8.90;99.90;;;;;;5115907;28;19908;-76
2023/02/02 09:46:41;;;;;;;;;;;8.90;99.90;;;;;;5114164;28;19951;-76
2023/02/02 09:49:10;;;;;;;;;;;8.80;99.90;;;;;;5115666;28;19907;-76
2023/02/02 09:51:42;;;;;;;;;;;8.80;99.90;;;;;;5117277;28;19915;-76
2023/02/02 09:54:07;;;;;;;;;;;8.80;99.90;;;;;;5118669;28;20293;-76
2023/02/02 09:56:35;;;;;;;;;;;8.80;99.90;;;;;;5118843;28;19915;-76
2023/02/02 09:59:02;;;;;;;;;;;8.80;99.90;;;;;;5117836;28;19908;-76
2023/02/02 10:01:32;;;;;;;;;;;8.80;99.90;;;;;;5119737;28;19908;-76
2023/02/02 10:04:04;;;;;;;;;;;8.80;99.90;;;;;;5120331;27;20320;-76
2023/02/02 10:06:35;;;;;;;;;;;8.90;99.90;;;;;;5119404;28;19941;-76
2023/02/02 10:09:21;;;;;;;;;;;8.90;99.90;;;;;;5119313;28;19961;-76
2023/02/02 10:11:53;;;;;;;;;;;8.90;99.90;;;;;;5118962;28;19908;-76
2023/02/02 10:14:25;;;;;;;;;;;8.90;99.90;;;;;;5119136;28;20393;-76
2023/02/02 10:16:54;;;;;;;;;;;8.90;99.90;;;;;;5117853;28;19907;-75
2023/02/02 10:19:20;;;;;;;;;;;9.00;99.90;;;;;;5117639;28;19916;-75
2023/02/02 10:21:50;;;;;;;;;;;9.10;99.90;;;;;;5118982;28;20010;-76
2023/02/02 10:24:20;;;;;;;;;;;8.90;99.90;;;;;;5118370;28;20045;-76
2023/02/02 10:26:49;;;;;;;;;;;9.00;99.90;;;;;;5118947;28;19912;-76
2023/02/02 10:29:20;;;;;;;;;;;8.90;99.90;;;;;;5117472;28;19915;-76
2023/02/02 10:31:46;;;;;;;;;;;8.90;99.90;;;;;;5117395;28;19908;-76
2023/02/02 10:34:16;;;;;;;;;;;9.00;99.90;;;;;;5117419;28;19912;-76
2023/02/02 10:36:42;;;;;;;;;;;9.00;99.90;;;;;;5119124;28;19998;-76
2023/02/02 10:39:11;;;;;;;;;;;9.00;99.90;;;;;;5118903;28;19943;-76
2023/02/02 10:41:44;;;;;;;;;;;9.00;99.90;;;;;;5118585;28;19931;-76
2023/02/02 10:44:10;;;;;;;;;;;9.00;99.90;;;;;;5118446;28;19908;-76
2023/02/02 10:46:38;;;;;;;;;;;9.00;99.90;;;;;;5117074;28;20296;-76
2023/02/02 10:49:26;;;;;;;;;;;9.00;99.90;;;;;;5117270;28;20386;-76
2023/02/02 10:51:57;;;;;;;;;;;9.00;99.90;;;;;;5118794;28;19908;-76
2023/02/02 10:54:31;;;;;;;;;;;9.00;99.90;;;;;;5118094;27;19911;-75
2023/02/02 10:56:59;;;;;;;;;;;8.90;99.90;;;;;;5116936;28;19915;-75
2023/02/02 10:59:28;;;;;;;;;;;8.90;99.90;;;;;;5117147;28;19968;-75
2023/02/02 11:01:54;;;;;;;;;;;8.90;99.90;;;;;;5116964;28;19908;-75
2023/02/02 11:07:04;;;;;;;;;;;9.00;99.90;;;;;;5118339;28;19960;-75
2023/02/02 11:09:31;;;;;;;;;;;9.00;99.90;;;;;;5118098;28;19969;-76
2023/02/02 11:12:02;;;;;;;;;;;9.10;99.90;;;;;;5118104;28;20263;-75
2023/02/02 11:14:40;;;;;;;;;;;9.20;99.90;;;;;;5118166;28;19999;-75
2023/02/02 11:17:15;;;;;;;;;;;9.20;99.90;;;;;;5118196;28;20285;-76
2023/02/02 11:19:40;;;;;;;;;;;9.40;99.90;;;;;;5116513;28;19926;-75
2023/02/02 11:22:22;;;;;;;;;;;9.30;99.90;;;;;;5116473;28;20006;-75
2023/02/02 11:24:48;;;;;;;;;;;9.30;99.90;;;;;;5117882;28;19911;-75
2023/02/02 11:27:16;;;;;;;;;;;9.40;99.90;;;;;;5117876;28;19912;-76
2023/02/02 11:29:44;;;;;;;;;;;9.40;99.90;;;;;;5116701;28;19961;-75
2023/02/02 11:32:16;;;;;;;;;;;9.40;99.90;;;;;;5117271;28;19908;-75
2023/02/02 11:34:42;;;;;;;;;;;9.40;99.90;;;;;;5116959;28;19914;-75
2023/02/02 11:37:14;;;;;;;;;;;9.40;99.90;;;;;;5117108;28;19908;-76
2023/02/02 11:39:41;;;;;;;;;;;9.30;99.90;;;;;;5116432;28;19931;-75
2023/02/02 11:42:11;;;;;;;;;;;9.30;99.90;;;;;;5117333;27;19972;-75
2023/02/02 11:44:37;;;;;;;;;;;9.80;99.90;;;;;;5115966;28;19908;-75
2023/02/02 11:47:03;;;;;;;;;;;9.30;99.90;;;;;;5116185;28;19915;-75
2023/02/02 11:49:31;;;;;;;;;;;9.30;99.90;;;;;;5117239;28;19961;-76
2023/02/02 11:51:56;;;;;;;;;;;9.20;99.90;;;;;;5116742;28;19908;-74
2023/02/02 11:54:31;;;;;;;;;;;9.20;99.90;;;;;;5117802;28;20107;-74
2023/02/02 11:56:58;;;;;;;;;;;9.20;99.90;;;;;;5117062;28;20419;-74
2023/02/02 11:59:33;;;;;;;;;;;9.20;99.90;;;;;;5116226;28;19912;-75
2023/02/02 12:02:11;;;;;;;;;;;9.20;99.90;;;;;;5116933;28;19912;-75
2023/02/02 12:04:36;;;;;;;;;;;9.20;99.90;;;;;;5117286;28;19908;-74
2023/02/02 12:07:15;;;;;;;;;;;9.10;99.90;;;;;;5116878;28;19915;-74
2023/02/02 12:09:41;;;;;;;;;;;9.20;99.90;;;;;;5117194;28;19908;-74
2023/02/02 12:12:25;;;;;;;;;;;9.50;99.90;;;;;;5115528;28;19957;-74
2023/02/02 12:14:50;;;;;;;;;;;9.20;99.90;;;;;;5116644;28;19907;-74
2023/02/02 12:17:37;;;;;;;;;;;9.20;99.90;;;;;;5114993;28;19930;-76
2023/02/02 12:20:03;;;;;;;;;;;9.20;99.90;;;;;;5114551;28;19965;-76
2023/02/02 12:22:42;;;;;;;;;;;9.10;99.90;;;;;;5115290;28;19907;-76
2023/02/02 12:25:14;;;;;;;;;;;9.10;99.90;;;;;;5115535;28;19908;-76
2023/02/02 12:27:39;;;;;;;;;;;9.10;99.90;;;;;;5115659;28;20021;-76
2023/02/02 12:30:13;;;;;;;;;;;9.10;99.90;;;;;;5116360;28;19915;-76
2023/02/02 12:32:42;;;;;;;;;;;9.00;99.90;;;;;;5116723;28;20006;-76
2023/02/02 12:35:25;;;;;;;;;;;8.90;99.90;;;;;;5115254;28;19957;-76
2023/02/02 12:37:55;;;;;;;;;;;8.90;99.90;;;;;;5116283;28;19957;-76
2023/02/02 12:40:36;;;;;;;;;;;8.90;99.90;;;;;;5115225;28;19998;-76
2023/02/02 12:43:03;;;;;;;;;;;8.90;99.90;;;;;;5115295;28;19908;-75
2023/02/02 12:45:31;;;;;;;;;;;8.90;99.90;;;;;;5116843;28;19908;-75
2023/02/02 12:48:14;;;;;;;;;;;8.90;99.90;;;;;;5116385;28;19912;-76
2023/02/02 12:50:40;;;;;;;;;;;8.90;99.90;;;;;;5115134;28;19908;-75
2023/02/02 12:53:24;;;;;;;;;;;8.80;99.90;;;;;;5115325;28;19907;-76
2023/02/02 12:55:50;;;;;;;;;;;8.80;99.90;;;;;;5114976;28;19951;-76
2023/02/02 12:58:29;;;;;;;;;;;8.80;99.90;;;;;;5116029;28;19915;-76
2023/02/02 13:01:05;;;;;;;;;;;8.80;99.90;;;;;;5116080;28;19951;-76
2023/02/02 13:03:37;;;;;;;;;;;8.80;99.90;;;;;;5114717;28;20367;-76
2023/02/02 13:06:09;;;;;;;;;;;8.80;99.90;;;;;;5116422;28;19912;-76
2023/02/02 13:08:34;;;;;;;;;;;8.80;99.90;;;;;;5115132;28;19908;-76
2023/02/02 13:11:04;;;;;;;;;;;8.80;99.90;;;;;;5116430;28;19908;-76
2023/02/02 13:13:32;;;;;;;;;;;8.80;99.90;;;;;;5114599;28;19915;-76
2023/02/02 13:16:06;;;;;;;;;;;8.70;99.90;;;;;;5116073;28;20286;-76
2023/02/02 13:18:40;;;;;;;;;;;8.70;99.90;;;;;;5116494;28;19908;-76
2023/02/02 13:21:07;;;;;;;;;;;8.70;99.90;;;;;;5115700;28;20011;-76
2023/02/02 13:23:35;;;;;;;;;;;8.70;99.90;;;;;;5115610;28;19912;-76
2023/02/02 13:26:05;;;;;;;;;;;8.60;99.90;;;;;;5116380;28;19956;-76
2023/02/02 13:28:37;;;;;;;;;;;8.60;99.90;;;;;;5118782;28;19999;-76
2023/02/02 13:31:05;;;;;;;;;;;8.50;99.90;;;;;;5119998;28;19957;-76
2023/02/02 13:33:33;;;;;;;;;;;8.50;99.90;;;;;;5118454;28;19908;-76
2023/02/02 13:36:18;;;;;;;;;;;8.40;99.90;;;;;;5119324;28;19930;-76
2023/02/02 13:38:44;;;;;;;;;;;8.40;99.90;;;;;;5120019;28;19908;-76
2023/02/02 13:41:12;;;;;;;;;;;8.50;99.90;;;;;;5118528;28;19908;-76
2023/02/02 13:43:49;;;;;;;;;;;8.50;99.90;;;;;;5118411;28;19998;-76
2023/02/02 13:46:30;;;;;;;;;;;8.50;99.90;;;;;;5119968;28;19908;-76
2023/02/02 13:49:01;;;;;;;;;;;8.40;99.90;;;;;;5119798;28;19908;-76
2023/02/02 13:51:39;;;;;;;;;;;8.50;99.90;;;;;;5118818;28;19908;-76
2023/02/02 13:54:30;;;;;;;;;;;8.50;99.90;;;;;;5117918;28;19908;-76
2023/02/02 13:57:14;;;;;;;;;;;8.50;99.90;;;;;;5082141;28;19908;-76
2023/02/02 13:59:58;;;;;;;;;;;8.60;99.90;;;;;;5119240;28;19915;-76
2023/02/02 14:02:24;;;;;;;;;;;8.50;99.90;;;;;;5118912;28;19911;-76
2023/02/02 14:04:53;;;;;;;;;;;8.60;99.90;;;;;;5118758;28;20286;-76
2023/02/02 14:07:25;;;;;;;;;;;8.60;99.90;;;;;;5119121;28;19911;-76
2023/02/02 14:09:51;;;;;;;;;;;8.60;99.90;;;;;;5119050;28;19907;-76
2023/02/02 14:12:25;;;;;;;;;;;8.50;99.90;;;;;;5119536;28;19930;-76
2023/02/02 14:14:51;;;;;;;;;;;8.40;99.90;;;;;;5119340;28;20006;-76
2023/02/02 14:17:18;;;;;;;;;;;8.40;99.90;;;;;;5117629;28;20399;-76
2023/02/02 14:19:46;;;;;;;;;;;8.40;99.90;;;;;;5117978;22;19924;-74
2023/02/02 14:22:11;;;;;;;;;;;8.40;99.90;;;;;;5078496;28;19909;-75
2023/02/02 14:24:38;;;;;;;;;;;8.40;99.90;;;;;;5060360;28;20458;-75
2023/02/02 14:27:07;;;;;;;;;;;8.30;99.90;;;;;;5078204;28;20298;-75
2023/02/02 14:29:35;;;;;;;;;;;8.30;99.90;;;;;;5077616;28;19951;-75
2023/02/02 14:32:19;;;;;;;;;;;8.30;99.90;;;;;;5077499;28;20421;-75
2023/02/02 14:34:45;;;;;;;;;;;8.30;99.90;;;;;;5060699;28;19935;-75
2023/02/02 14:37:23;;;;;;;;;;;8.30;99.90;;;;;;5059248;28;19912;-75
2023/02/02 14:40:07;;;;;;;;;;;8.20;99.90;;;;;;5077896;28;19913;-74
2023/02/02 14:45:38;;;;;;;;;;;8.20;99.90;;;;;;5077710;28;20290;-75
2023/02/02 14:48:06;;;;;;;;;;;8.10;99.90;;;;;;5077268;28;20077;-74
2023/02/02 14:50:38;;;;;;;;;;;8.10;99.90;;;;;;5059228;28;19912;-74
2023/02/02 14:53:13;;;;;;;;;;;8.10;99.90;;;;;;5076893;28;19912;-74
2023/02/02 14:55:54;;;;;;;;;;;8.10;99.90;;;;;;5059329;28;20370;-74